createdAt,value
2022-09-22T00:00:42.607Z,63.90
2022-09-22T00:02:48.211Z,64.00
2022-09-22T00:04:52.398Z,63.90
2022-09-22T00:06:57.554Z,63.80
2022-09-22T00:09:03.091Z,63.50
2022-09-22T00:11:13.859Z,63.60
2022-09-22T00:13:18.039Z,63.70
2022-09-22T00:15:22.935Z,63.70
2022-09-22T00:17:27.079Z,63.90
2022-09-22T00:19:35.026Z,64.00
2022-09-22T00:21:39.249Z,64.00
2022-09-22T00:23:44.216Z,63.90
2022-09-22T00:25:48.410Z,64.00
2022-09-22T00:27:55.192Z,64.20
2022-09-22T00:29:59.461Z,64.10
2022-09-22T00:32:07.321Z,64.00
2022-09-22T00:34:16.737Z,63.90
2022-09-22T00:36:25.687Z,64.00
2022-09-22T00:38:30.654Z,64.00
2022-09-22T00:40:35.323Z,63.80
2022-09-22T00:42:39.607Z,63.90
2022-09-22T00:44:44.768Z,63.80
2022-09-22T00:46:52.603Z,63.90
2022-09-22T00:49:00.651Z,64.00
2022-09-22T00:51:08.842Z,63.90
2022-09-22T00:53:16.758Z,63.90
2022-09-22T00:55:24.263Z,63.80
2022-09-22T00:57:32.627Z,63.70
2022-09-22T00:59:37.819Z,63.80
2022-09-22T01:01:42.162Z,63.90
2022-09-22T01:03:46.487Z,63.80
2022-09-22T01:05:54.051Z,63.70
2022-09-22T01:07:58.468Z,63.70
2022-09-22T01:10:04.227Z,63.60
2022-09-22T01:12:09.638Z,63.80
2022-09-22T01:14:24.949Z,63.70
2022-09-22T01:16:43.748Z,64.10
2022-09-22T01:18:58.913Z,64.30
2022-09-22T01:21:21.266Z,64.30
2022-09-22T01:23:55.434Z,64.40
2022-09-22T01:26:21.134Z,64.20
2022-09-22T01:28:54.130Z,64.40
2022-09-22T01:31:04.634Z,64.30
2022-09-22T01:33:24.890Z,64.20
2022-09-22T01:35:33.425Z,64.20
2022-09-22T01:37:45.500Z,64.20
2022-09-22T01:39:54.236Z,64.00
2022-09-22T01:42:03.154Z,64.00
2022-09-22T01:44:14.237Z,64.00
2022-09-22T01:46:28.305Z,64.00
2022-09-22T01:48:35.223Z,64.10
2022-09-22T01:50:43.364Z,63.90
2022-09-22T01:52:49.398Z,64.00
2022-09-22T01:54:58.077Z,63.80
2022-09-22T01:57:14.385Z,64.00
2022-09-22T01:59:21.553Z,63.90
2022-09-22T02:01:30.878Z,63.80
2022-09-22T02:03:40.627Z,63.80
2022-09-22T02:05:49.574Z,64.00
2022-09-22T02:07:57.532Z,64.10
2022-09-22T02:10:06.763Z,64.30
2022-09-22T02:12:11.018Z,64.90
2022-09-22T02:14:15.546Z,64.30
2022-09-22T02:16:22.988Z,64.30
2022-09-22T02:18:33.257Z,64.20
2022-09-22T02:20:37.740Z,64.30
2022-09-22T02:22:41.936Z,64.30
2022-09-22T02:24:47.280Z,64.40
2022-09-22T02:26:51.995Z,64.40
2022-09-22T02:29:01.061Z,64.20
2022-09-22T02:31:22.255Z,64.30
2022-09-22T02:33:29.541Z,64.10
2022-09-22T02:35:38.744Z,63.90
2022-09-22T02:37:50.336Z,64.60
2022-09-22T02:40:04.848Z,64.80
2022-09-22T02:42:26.150Z,64.70
2022-09-22T02:44:35.486Z,64.50
2022-09-22T02:46:43.943Z,64.40
2022-09-22T02:48:52.750Z,64.30
2022-09-22T02:50:57.005Z,64.30
2022-09-22T02:53:05.186Z,64.20
2022-09-22T02:55:15.128Z,64.10
2022-09-22T02:57:19.323Z,64.20
2022-09-22T02:59:23.391Z,64.20
2022-09-22T03:01:27.953Z,63.60
2022-09-22T03:03:32.401Z,64.20
2022-09-22T03:05:38.038Z,64.60
2022-09-22T03:07:42.120Z,64.20
2022-09-22T03:09:46.183Z,64.50
2022-09-22T03:11:50.400Z,64.40
2022-09-22T03:13:54.835Z,64.20
2022-09-22T03:15:59.083Z,64.20
2022-09-22T03:18:03.238Z,64.20
2022-09-22T03:20:09.190Z,64.20
2022-09-22T03:22:14.731Z,63.60
2022-09-22T03:24:18.895Z,67.30
2022-09-22T03:26:23.050Z,70.80
2022-09-22T03:28:27.265Z,72.00
2022-09-22T03:30:31.746Z,75.50
2022-09-22T03:32:36.606Z,76.40
2022-09-22T03:34:40.854Z,79.20
2022-09-22T03:36:44.971Z,80.10
2022-09-22T03:38:52.107Z,80.40
2022-09-22T03:40:58.851Z,81.00
2022-09-22T03:43:03.227Z,81.90
2022-09-22T03:45:08.723Z,83.50
2022-09-22T03:47:13.234Z,83.20
2022-09-22T03:49:17.444Z,83.20
2022-09-22T03:51:21.789Z,84.10
2022-09-22T03:53:26.559Z,84.70
2022-09-22T03:55:32.471Z,85.60
2022-09-22T03:57:36.881Z,86.10
2022-09-22T03:59:41.538Z,86.60
2022-09-22T04:01:46.076Z,86.40
2022-09-22T04:03:50.659Z,85.80
2022-09-22T04:05:55.272Z,86.10
2022-09-22T04:07:59.573Z,87.00
2022-09-22T04:10:05.013Z,87.80
2022-09-22T04:12:11.609Z,87.80
2022-09-22T04:14:16.098Z,88.40
2022-09-22T04:16:20.295Z,89.60
2022-09-22T04:18:24.845Z,89.60
2022-09-22T04:20:30.379Z,90.10
2022-09-22T04:22:35.013Z,91.00
2022-09-22T04:24:39.289Z,89.60
2022-09-22T04:27:01.885Z,86.00
2022-09-22T04:29:09.241Z,82.70
2022-09-22T04:31:13.543Z,79.60
2022-09-22T04:33:18.124Z,77.60
2022-09-22T04:35:22.331Z,75.80
2022-09-22T04:37:26.497Z,74.50
2022-09-22T04:39:30.921Z,74.00
2022-09-22T04:41:35.123Z,73.50
2022-09-22T04:43:39.422Z,73.20
2022-09-22T04:45:47.275Z,71.60
2022-09-22T04:47:53.117Z,70.60
2022-09-22T04:49:57.565Z,70.40
2022-09-22T04:52:02.089Z,69.50
2022-09-22T04:54:06.513Z,69.20
2022-09-22T04:56:11.314Z,68.50
2022-09-22T04:58:15.613Z,69.00
2022-09-22T05:00:21.628Z,70.40
2022-09-22T05:02:27.557Z,72.30
2022-09-22T05:04:31.964Z,72.70
2022-09-22T05:06:36.496Z,73.40
2022-09-22T05:08:40.825Z,73.70
2022-09-22T05:10:45.486Z,74.50
2022-09-22T05:12:49.748Z,75.00
2022-09-22T05:14:54.158Z,76.50
2022-09-22T05:17:01.356Z,77.00
2022-09-22T05:19:07.079Z,78.30
2022-09-22T05:21:11.448Z,79.70
2022-09-22T05:23:15.888Z,80.70
2022-09-22T05:25:20.815Z,80.60
2022-09-22T05:27:25.449Z,81.40
2022-09-22T05:29:29.901Z,81.20
2022-09-22T05:31:34.244Z,80.10
2022-09-22T05:33:38.903Z,79.00
2022-09-22T05:35:44.472Z,80.20
2022-09-22T05:37:49.799Z,81.70
2022-09-22T05:39:53.997Z,83.00
2022-09-22T05:41:58.068Z,85.50
2022-09-22T05:44:03.145Z,87.20
2022-09-22T05:46:07.392Z,88.40
2022-09-22T05:48:12.176Z,88.80
2022-09-22T05:50:18.228Z,88.80
2022-09-22T05:52:24.256Z,87.70
2022-09-22T05:54:28.675Z,87.60
2022-09-22T05:56:33.125Z,87.40
2022-09-22T05:58:37.607Z,86.30
2022-09-22T06:00:42.903Z,85.00
2022-09-22T06:02:47.215Z,83.70
2022-09-22T06:04:51.971Z,81.10
2022-09-22T06:06:56.462Z,81.60
2022-09-22T06:09:02.528Z,82.90
2022-09-22T06:11:07.022Z,83.80
2022-09-22T06:13:13.021Z,84.10
2022-09-22T06:15:17.550Z,82.00
2022-09-22T06:17:22.707Z,82.20
2022-09-22T06:19:28.978Z,82.50
2022-09-22T06:21:33.709Z,82.60
2022-09-22T06:23:42.614Z,81.50
2022-09-22T06:25:48.837Z,81.50
2022-09-22T06:28:02.081Z,80.30
2022-09-22T06:30:11.255Z,81.20
2022-09-22T06:32:15.945Z,80.70
2022-09-22T06:34:20.249Z,80.00
2022-09-22T06:36:31.389Z,77.70
2022-09-22T06:38:36.114Z,74.50
2022-09-22T06:40:41.678Z,73.90
2022-09-22T06:42:51.227Z,71.80
2022-09-22T06:44:55.526Z,70.80
2022-09-22T06:47:05.431Z,69.90
2022-09-22T06:49:10.069Z,68.60
2022-09-22T06:51:14.428Z,67.60
2022-09-22T06:53:19.242Z,67.40
2022-09-22T06:55:23.811Z,67.30
2022-09-22T06:57:33.255Z,68.40
2022-09-22T06:59:39.152Z,69.10
2022-09-22T07:01:45.087Z,69.00
2022-09-22T07:03:49.600Z,68.30
2022-09-22T07:05:55.103Z,68.30
2022-09-22T07:07:59.446Z,66.90
2022-09-22T07:10:03.680Z,67.50
2022-09-22T07:12:08.433Z,68.50
2022-09-22T07:14:12.780Z,67.40
2022-09-22T07:16:19.693Z,67.80
2022-09-22T07:18:24.467Z,67.50
2022-09-22T07:20:29.101Z,68.30
2022-09-22T07:22:33.529Z,66.80
2022-09-22T07:24:37.874Z,66.40
2022-09-22T07:26:44.202Z,66.00
2022-09-22T07:28:50.487Z,66.20
2022-09-22T07:30:54.821Z,66.20
2022-09-22T07:33:01.918Z,65.70
2022-09-22T07:35:06.843Z,65.60
2022-09-22T07:37:15.608Z,65.30
2022-09-22T07:39:19.817Z,66.00
2022-09-22T07:41:27.612Z,65.40
2022-09-22T07:43:31.952Z,64.70
2022-09-22T07:45:35.220Z,63.50
2022-09-22T07:47:56.735Z,63.40
2022-09-22T07:50:04.264Z,64.00
2022-09-22T07:52:08.592Z,63.90
2022-09-22T07:54:13.056Z,64.40
2022-09-22T07:56:18.900Z,63.90
2022-09-22T07:58:23.254Z,64.90
2022-09-22T08:00:33.131Z,66.10
2022-09-22T08:02:38.258Z,67.40
2022-09-22T08:04:42.758Z,66.90
2022-09-22T08:06:50.472Z,65.00
2022-09-22T08:08:57.738Z,65.90
2022-09-22T08:11:06.480Z,66.30
2022-09-22T08:13:11.488Z,66.30
2022-09-22T08:15:15.672Z,67.50
2022-09-22T08:17:19.855Z,66.50
2022-09-22T08:19:24.917Z,66.20
2022-09-22T08:21:35.374Z,66.30
2022-09-22T08:23:41.836Z,66.30
2022-09-22T08:25:46.193Z,65.90
2022-09-22T08:27:50.334Z,66.00
2022-09-22T08:29:55.123Z,65.60
2022-09-22T08:31:59.207Z,65.00
2022-09-22T08:34:04.961Z,65.00
2022-09-22T08:36:11.832Z,64.70
2022-09-22T08:38:16.879Z,63.90
2022-09-22T08:40:24.105Z,64.10
2022-09-22T08:42:29.680Z,62.70
2022-09-22T08:44:40.810Z,62.70
2022-09-22T08:46:46.380Z,63.20
2022-09-22T08:49:09.158Z,64.50
2022-09-22T08:51:35.976Z,63.60
2022-09-22T08:53:47.949Z,62.70
2022-09-22T08:55:57.215Z,62.50
2022-09-22T08:58:08.047Z,62.20
2022-09-22T09:00:16.004Z,62.30
2022-09-22T09:02:46.975Z,62.50
2022-09-22T09:05:07.213Z,61.90
2022-09-22T09:07:19.787Z,61.40
2022-09-22T09:09:45.028Z,61.80
2022-09-22T09:12:21.904Z,60.80
2022-09-22T09:14:41.845Z,60.30
2022-09-22T09:16:50.484Z,59.60
2022-09-22T09:19:01.904Z,58.60
2022-09-22T09:21:11.378Z,59.20
2022-09-22T09:23:19.350Z,58.50
2022-09-22T09:25:32.368Z,59.40
2022-09-22T09:27:42.623Z,60.60
2022-09-22T09:29:57.344Z,60.20
2022-09-22T09:32:04.927Z,59.90
2022-09-22T09:34:14.513Z,60.10
2022-09-22T09:36:22.852Z,61.10
2022-09-22T09:38:29.567Z,61.50
2022-09-22T09:40:33.855Z,62.70
2022-09-22T09:42:39.687Z,62.60
2022-09-22T09:44:45.342Z,63.30
2022-09-22T09:46:59.380Z,63.40
2022-09-22T09:49:10.068Z,63.50
2022-09-22T09:51:14.885Z,63.60
2022-09-22T09:53:31.798Z,62.60
2022-09-22T09:55:36.012Z,63.00
2022-09-22T09:58:09.314Z,61.50
2022-09-22T10:00:32.246Z,60.70
2022-09-22T10:02:39.245Z,60.60
2022-09-22T10:04:51.992Z,59.80
2022-09-22T10:07:01.416Z,59.90
2022-09-22T10:09:06.352Z,59.80
2022-09-22T10:11:12.692Z,60.00
2022-09-22T10:13:31.504Z,60.40
2022-09-22T10:15:37.756Z,60.10
2022-09-22T10:17:45.099Z,60.50
2022-09-22T10:19:51.020Z,60.90
2022-09-22T10:22:17.516Z,60.80
2022-09-22T10:24:31.697Z,61.00
2022-09-22T10:26:36.541Z,62.30
2022-09-22T10:28:42.523Z,62.30
2022-09-22T10:31:00.450Z,61.90
2022-09-22T10:33:07.953Z,63.00
2022-09-22T10:35:28.179Z,63.30
2022-09-22T10:37:32.777Z,62.80
2022-09-22T10:39:49.238Z,62.60
2022-09-22T10:41:53.799Z,62.10
2022-09-22T10:44:15.519Z,63.20
2022-09-22T10:46:52.463Z,63.60
2022-09-22T10:49:04.793Z,63.10
2022-09-22T10:51:17.618Z,62.70
2022-09-22T10:54:00.057Z,63.00
2022-09-22T10:56:14.084Z,62.90
2022-09-22T10:58:28.610Z,61.70
2022-09-22T11:00:38.936Z,61.20
2022-09-22T11:03:20.462Z,62.30
2022-09-22T11:05:56.697Z,61.40
2022-09-22T11:08:24.432Z,60.90
2022-09-22T11:10:54.999Z,60.40
2022-09-22T11:13:11.817Z,60.70
2022-09-22T11:15:26.262Z,59.70
2022-09-22T11:17:46.712Z,59.10
2022-09-22T11:20:14.553Z,59.00
2022-09-22T11:22:48.856Z,59.50
2022-09-22T11:25:07.284Z,60.40
2022-09-22T11:27:17.373Z,60.10
2022-09-22T11:29:57.013Z,60.50
2022-09-22T11:32:15.993Z,58.30
2022-09-22T11:34:49.526Z,59.70
2022-09-22T11:36:58.931Z,59.60
2022-09-22T11:39:20.849Z,60.40
2022-09-22T11:41:31.635Z,59.90
2022-09-22T11:43:55.718Z,59.60
2022-09-22T11:46:11.921Z,59.50
2022-09-22T11:48:32.861Z,59.80
2022-09-22T11:51:11.585Z,60.20
2022-09-22T11:53:39.628Z,60.40
2022-09-22T11:55:50.419Z,60.00
2022-09-22T11:57:59.772Z,60.40
2022-09-22T12:00:07.285Z,60.60
2022-09-22T12:02:26.405Z,60.00
2022-09-22T12:04:37.771Z,59.30
2022-09-22T12:06:47.782Z,59.90
2022-09-22T12:11:04.447Z,61.40
2022-09-22T12:13:13.148Z,60.60
2022-09-22T12:15:23.674Z,61.00
2022-09-22T12:17:36.818Z,60.90
2022-09-22T12:19:51.235Z,61.70
2022-09-22T12:22:07.570Z,61.50
2022-09-22T12:24:13.539Z,61.40
2022-09-22T12:26:27.366Z,61.60
2022-09-22T12:28:38.134Z,61.20
2022-09-22T12:30:53.833Z,61.20
2022-09-22T12:32:58.025Z,62.10
2022-09-22T12:35:02.705Z,61.60
2022-09-22T12:37:14.564Z,62.30
2022-09-22T12:39:21.282Z,62.70
2022-09-22T12:41:25.411Z,62.80
2022-09-22T12:43:30.318Z,63.60
2022-09-22T12:45:37.158Z,64.00
2022-09-22T12:47:43.396Z,64.80
2022-09-22T12:49:52.653Z,65.90
2022-09-22T12:51:56.947Z,65.60
2022-09-22T12:54:47.000Z,66.30
2022-09-22T12:56:59.507Z,65.80
2022-09-22T12:59:03.802Z,67.00
2022-09-22T13:01:32.786Z,67.60
2022-09-22T13:03:51.988Z,67.60
2022-09-22T13:05:59.959Z,68.60
2022-09-22T13:08:04.803Z,68.70
2022-09-22T13:10:46.407Z,68.40
2022-09-22T13:13:20.865Z,69.10
2022-09-22T13:15:25.173Z,68.40
2022-09-22T13:17:41.471Z,68.60
2022-09-22T13:19:56.332Z,70.30
2022-09-22T13:22:17.867Z,73.00
2022-09-22T13:24:27.063Z,75.70
2022-09-22T13:26:34.557Z,75.70
2022-09-22T13:28:40.577Z,77.00
2022-09-22T13:30:46.687Z,77.10
2022-09-22T13:32:51.813Z,75.20
2022-09-22T13:34:55.910Z,74.00
2022-09-22T13:37:04.423Z,72.20
2022-09-22T13:39:11.540Z,71.20
2022-09-22T13:41:20.449Z,70.40
2022-09-22T13:43:33.184Z,69.70
2022-09-22T13:45:40.910Z,68.10
2022-09-22T13:47:45.777Z,70.40
2022-09-22T13:49:54.954Z,67.70
2022-09-22T13:52:02.834Z,68.10
2022-09-22T13:54:09.575Z,67.70
2022-09-22T13:56:21.635Z,68.20
2022-09-22T13:58:31.184Z,68.20
2022-09-22T14:01:01.732Z,68.40
2022-09-22T14:03:17.266Z,68.60
2022-09-22T14:05:25.001Z,69.00
2022-09-22T14:07:32.415Z,68.50
2022-09-22T14:09:39.746Z,69.60
2022-09-22T14:11:44.270Z,69.60
2022-09-22T14:13:59.531Z,68.70
2022-09-22T14:16:20.673Z,67.80
2022-09-22T14:18:28.030Z,67.80
2022-09-22T14:20:32.344Z,67.80
2022-09-22T14:22:43.326Z,67.80
2022-09-22T14:24:50.635Z,68.20
2022-09-22T14:27:00.209Z,67.60
2022-09-22T14:29:19.558Z,67.00
2022-09-22T14:31:29.251Z,66.90
2022-09-22T14:33:34.710Z,67.10
2022-09-22T14:35:38.921Z,67.40
2022-09-22T14:37:46.481Z,67.00
2022-09-22T14:39:53.618Z,67.60
2022-09-22T14:41:59.717Z,67.90
2022-09-22T14:44:26.549Z,67.70
2022-09-22T14:46:41.172Z,67.60
2022-09-22T14:48:45.754Z,65.70
2022-09-22T14:50:55.831Z,65.60
2022-09-22T14:53:06.798Z,65.80
2022-09-22T14:55:18.166Z,66.50
2022-09-22T14:57:22.697Z,66.60
2022-09-22T14:59:44.883Z,67.70
2022-09-22T15:02:08.693Z,67.90
2022-09-22T15:04:18.550Z,67.20
2022-09-22T15:06:22.870Z,67.20
2022-09-22T15:08:31.959Z,68.60
2022-09-22T15:10:37.077Z,68.00
2022-09-22T15:12:47.313Z,68.80
2022-09-22T15:15:00.472Z,67.30
2022-09-22T15:17:44.020Z,66.60
2022-09-22T15:19:51.495Z,67.20
2022-09-22T15:21:56.355Z,66.40
2022-09-22T15:24:01.809Z,66.10
2022-09-22T15:26:06.273Z,66.30
2022-09-22T15:28:13.838Z,67.10
2022-09-22T15:30:18.422Z,66.90
2022-09-22T15:32:24.277Z,67.20
2022-09-22T15:34:28.359Z,67.50
2022-09-22T15:36:33.778Z,68.00
2022-09-22T15:38:39.220Z,68.60
2022-09-22T15:40:43.367Z,69.00
2022-09-22T15:43:02.560Z,69.40
2022-09-22T15:45:14.447Z,70.20
2022-09-22T15:47:18.974Z,70.80
2022-09-22T15:49:27.094Z,71.50
2022-09-22T15:51:31.706Z,72.10
2022-09-22T15:53:37.824Z,71.80
2022-09-22T15:55:42.100Z,71.90
2022-09-22T15:57:48.836Z,72.10
2022-09-22T15:59:53.273Z,72.00
2022-09-22T16:02:01.343Z,72.20
2022-09-22T16:04:07.184Z,75.40
2022-09-22T16:06:15.931Z,72.60
2022-09-22T16:08:28.935Z,72.30
2022-09-22T16:10:36.530Z,72.80
2022-09-22T16:12:41.670Z,73.10
2022-09-22T16:14:45.752Z,73.00
2022-09-22T16:16:51.740Z,73.50
2022-09-22T16:18:56.211Z,73.90
2022-09-22T16:21:05.095Z,74.10
2022-09-22T16:23:11.101Z,74.50
2022-09-22T16:25:18.988Z,75.60
2022-09-22T16:27:23.181Z,79.80
2022-09-22T16:29:27.239Z,79.10
2022-09-22T16:31:31.808Z,79.00
2022-09-22T16:33:36.383Z,77.80
2022-09-22T16:35:40.684Z,76.20
2022-09-22T16:37:45.103Z,74.70
2022-09-22T16:39:50.631Z,73.00
2022-09-22T16:41:55.468Z,71.50
2022-09-22T16:44:00.097Z,70.20
2022-09-22T16:46:21.801Z,71.10
2022-09-22T16:48:26.026Z,73.10
2022-09-22T16:50:30.199Z,74.80
2022-09-22T16:52:34.450Z,77.70
2022-09-22T16:54:38.569Z,75.90
2022-09-22T16:56:46.084Z,78.30
2022-09-22T16:58:50.887Z,79.80
2022-09-22T17:00:55.154Z,81.60
2022-09-22T17:02:59.478Z,81.10
2022-09-22T17:05:03.632Z,80.20
2022-09-22T17:07:07.930Z,78.60
2022-09-22T17:09:13.213Z,79.70
2022-09-22T17:11:18.556Z,79.60
2022-09-22T17:13:26.765Z,78.80
2022-09-22T17:15:35.022Z,78.30
2022-09-22T17:17:39.675Z,77.00
2022-09-22T17:19:48.290Z,79.50
2022-09-22T17:21:55.498Z,79.70
2022-09-22T17:24:01.459Z,80.80
2022-09-22T17:26:07.516Z,83.40
2022-09-22T17:28:11.931Z,86.60
2022-09-22T17:30:17.713Z,89.30
2022-09-22T17:32:23.533Z,90.90
2022-09-22T17:34:29.572Z,91.20
2022-09-22T17:36:33.818Z,91.30
2022-09-22T17:38:40.218Z,91.80
2022-09-22T17:40:44.375Z,91.10
2022-09-22T17:42:48.889Z,91.40
2022-09-22T17:44:53.067Z,91.70
2022-09-22T17:47:16.053Z,92.40
2022-09-22T17:49:36.096Z,92.20
2022-09-22T17:51:59.546Z,92.30
2022-09-22T17:54:21.207Z,92.40
2022-09-22T17:56:25.481Z,92.70
2022-09-22T17:58:29.603Z,92.20
2022-09-22T18:00:33.996Z,92.20
2022-09-22T18:02:39.903Z,92.10
2022-09-22T18:04:45.941Z,92.00
2022-09-22T18:06:51.105Z,92.70
2022-09-22T18:09:02.247Z,93.00
2022-09-22T18:11:06.856Z,92.90
2022-09-22T18:13:10.960Z,93.10
2022-09-22T18:15:17.308Z,93.40
2022-09-22T18:17:23.916Z,93.90
2022-09-22T18:19:31.069Z,94.30
2022-09-22T18:21:35.420Z,94.10
2022-09-22T18:23:39.877Z,93.80
2022-09-22T18:25:44.322Z,93.90
2022-09-22T18:27:49.479Z,93.70
2022-09-22T18:29:58.551Z,93.60
2022-09-22T18:32:05.292Z,93.50
2022-09-22T18:34:10.665Z,94.20
2022-09-22T18:36:16.868Z,94.10
2022-09-22T18:38:21.373Z,95.50
2022-09-22T18:40:26.247Z,95.80
2022-09-22T18:42:32.793Z,95.20
2022-09-22T18:44:36.876Z,96.30
2022-09-22T18:46:41.065Z,97.10
2022-09-22T18:48:45.974Z,97.30
2022-09-22T18:50:54.550Z,97.90
2022-09-22T18:53:00.136Z,97.90
2022-09-22T18:55:09.449Z,98.30
2022-09-22T18:57:13.600Z,98.70
2022-09-22T18:59:19.898Z,99.00
2022-09-22T19:01:24.294Z,99.10
2022-09-22T19:03:28.527Z,99.40
2022-09-22T19:05:32.718Z,99.50
2022-09-22T19:07:42.416Z,99.70
2022-09-22T19:09:49.505Z,99.80
2022-09-22T19:11:54.101Z,99.60
2022-09-22T19:13:58.325Z,99.80
2022-09-22T19:16:04.164Z,99.60
2022-09-22T19:18:09.998Z,99.90
2022-09-22T19:20:15.766Z,99.90
2022-09-22T19:22:22.818Z,99.80
2022-09-22T19:24:27.019Z,99.90
2022-09-22T19:26:32.944Z,99.90
2022-09-22T19:28:37.089Z,99.90
2022-09-22T19:30:41.541Z,99.50
2022-09-22T19:32:46.397Z,99.40
2022-09-22T19:34:53.745Z,99.20
2022-09-22T19:36:58.361Z,99.10
2022-09-22T19:39:02.602Z,99.20
2022-09-22T19:41:06.796Z,98.70
2022-09-22T19:43:12.338Z,98.40
2022-09-22T19:45:16.817Z,98.20
2022-09-22T19:47:21.141Z,99.90
2022-09-22T19:49:25.693Z,99.90
2022-09-22T19:51:30.044Z,97.90
2022-09-22T19:53:34.290Z,97.50
2022-09-22T19:55:38.541Z,96.70
2022-09-22T19:57:42.821Z,93.80
2022-09-22T19:59:48.391Z,91.40
2022-09-22T20:01:53.038Z,90.40
2022-09-22T20:03:57.704Z,88.50
2022-09-22T20:06:02.112Z,89.10
2022-09-22T20:08:07.815Z,88.50
2022-09-22T20:10:13.299Z,87.10
2022-09-22T20:12:17.511Z,86.20
2022-09-22T20:14:20.655Z,85.30
2022-09-22T20:16:28.149Z,83.80
2022-09-22T20:18:33.393Z,83.10
2022-09-22T20:20:37.549Z,81.20
2022-09-22T20:22:42.225Z,82.10
2022-09-22T20:24:50.325Z,81.00
2022-09-22T20:26:54.456Z,80.70
2022-09-22T20:28:59.194Z,78.60
2022-09-22T20:31:03.391Z,81.80
2022-09-22T20:33:18.259Z,82.10
2022-09-22T20:35:22.797Z,83.80
2022-09-22T20:37:27.285Z,84.70
2022-09-22T20:39:32.680Z,86.70
2022-09-22T20:41:38.620Z,89.70
2022-09-22T20:43:42.690Z,90.20
2022-09-22T20:45:46.935Z,88.30
2022-09-22T20:47:51.085Z,85.50
2022-09-22T20:49:57.149Z,84.30
2022-09-22T20:52:01.961Z,84.60
2022-09-22T20:54:06.921Z,85.80
2022-09-22T20:56:14.029Z,84.00
2022-09-22T20:58:18.139Z,82.60
2022-09-22T21:00:22.315Z,82.30
2022-09-22T21:02:27.706Z,81.50
2022-09-22T21:04:32.139Z,80.80
2022-09-22T21:06:37.636Z,81.50
2022-09-22T21:09:00.544Z,81.00
2022-09-22T21:11:04.843Z,81.50
2022-09-22T21:13:12.513Z,81.50
2022-09-22T21:15:16.646Z,82.20
2022-09-22T21:17:21.341Z,81.80
2022-09-22T21:19:25.555Z,80.60
2022-09-22T21:21:31.308Z,80.80
2022-09-22T21:23:37.343Z,80.40
2022-09-22T21:25:41.491Z,80.70
2022-09-22T21:27:45.665Z,80.20
2022-09-22T21:29:50.243Z,82.00
2022-09-22T21:31:56.253Z,81.60
2022-09-22T21:34:00.460Z,81.20
2022-09-22T21:36:08.660Z,80.50
2022-09-22T21:38:12.821Z,80.10
2022-09-22T21:40:19.020Z,78.30
2022-09-22T21:42:23.217Z,81.40
2022-09-22T21:44:27.331Z,82.80
2022-09-22T21:46:31.957Z,81.70
2022-09-22T21:48:37.255Z,80.20
2022-09-22T21:50:41.503Z,79.70
2022-09-22T21:52:46.000Z,79.40
2022-09-22T21:54:51.438Z,79.10
2022-09-22T21:56:57.561Z,79.50
2022-09-22T21:59:03.457Z,79.70
2022-09-22T22:01:08.926Z,79.20
2022-09-22T22:03:30.623Z,80.40
2022-09-22T22:05:35.092Z,80.70
2022-09-22T22:07:39.181Z,82.60
2022-09-22T22:09:43.409Z,80.80
2022-09-22T22:11:49.456Z,80.60
2022-09-22T22:13:57.099Z,80.40
2022-09-22T22:16:02.115Z,81.10
2022-09-22T22:18:10.304Z,81.40
2022-09-22T22:20:14.623Z,85.20
2022-09-22T22:22:18.802Z,84.00
2022-09-22T22:24:29.508Z,86.00
2022-09-22T22:26:33.684Z,86.10
2022-09-22T22:28:37.943Z,87.00
2022-09-22T22:30:43.947Z,85.90
2022-09-22T22:32:48.117Z,87.70
2022-09-22T22:34:52.297Z,88.70
2022-09-22T22:36:58.081Z,90.00
2022-09-22T22:39:02.458Z,90.70
2022-09-22T22:41:10.057Z,90.70
2022-09-22T22:43:14.685Z,91.80
2022-09-22T22:45:19.000Z,91.10
2022-09-22T22:47:25.684Z,91.30
2022-09-22T22:49:29.893Z,91.80
2022-09-22T22:51:35.630Z,92.40
2022-09-22T22:53:39.955Z,92.70
2022-09-22T22:55:57.969Z,93.00
2022-09-22T22:58:02.489Z,93.70
2022-09-22T23:00:08.855Z,93.10
2022-09-22T23:02:13.002Z,93.80
2022-09-22T23:04:18.672Z,93.90
2022-09-22T23:06:25.250Z,95.10
2022-09-22T23:08:29.858Z,95.40
2022-09-22T23:10:35.414Z,95.40
2022-09-22T23:12:40.366Z,95.70
2022-09-22T23:14:44.648Z,96.50
2022-09-22T23:16:49.612Z,93.00
2022-09-22T23:18:54.370Z,95.30
2022-09-22T23:20:59.855Z,93.00
2022-09-22T23:23:04.070Z,90.80
2022-09-22T23:25:09.813Z,87.50
2022-09-22T23:27:15.102Z,85.10
2022-09-22T23:29:19.186Z,83.70
2022-09-22T23:31:23.452Z,83.20
2022-09-22T23:33:27.850Z,82.70
2022-09-22T23:35:32.014Z,81.80
2022-09-22T23:37:37.760Z,82.00
2022-09-22T23:39:42.028Z,82.00
2022-09-22T23:41:47.170Z,81.80
2022-09-22T23:43:51.752Z,81.50
2022-09-22T23:45:56.871Z,81.70
2022-09-22T23:48:01.023Z,83.30
2022-09-22T23:50:05.442Z,84.30
2022-09-22T23:52:09.630Z,85.80
2022-09-22T23:54:15.363Z,89.20
2022-09-22T23:56:20.047Z,91.10
2022-09-22T23:58:24.354Z,92.40
